Pride Of Bruges — PGJW — position and weather

sailwx.info

Track history (hours):
 
Tides and Currents Weather Stations Pressure Air Temp Water Temp Dewpoint Dewpoint Depression Visibility Wind Speed Wind Dir Waves Ship Positions

Pride Of Bruges

Operator: P&O Ferries

Last reported at 2019-Mar-22 12:28 UTC. Time now 2019-Mar-22 12:52 UTC.
Position N 53°45' W 000°16'.

Length 180 m; draft 5.9 m.

Type: Ship (hazmat cat B). MMSI: 244387000.

Date/timePositionNaut miles runAvg speedWind from/ knotsBaromVisibWave heightAir tempDewpointWater temp
2019-Mar-22 12:28N 53°45' W 000°16'0 0.0
2019-Mar-22 11:58N 53°45' W 000°16'0 0.0
2019-Mar-22 11:28N 53°45' W 000°16'0 0.0
2019-Mar-22 11:00N 53°45' W 000°16'0 0.0
2019-Mar-22 10:30N 53°45' W 000°16'0 0.0
2019-Mar-22 10:00N 53°45' W 000°16'0 0.0
2019-Mar-22 09:30N 53°45' W 000°16'0 0.0
2019-Mar-22 09:00N 53°45' W 000°16'0 0.0
2019-Mar-22 08:29N 53°45' W 000°16'0 0.2
2019-Mar-22 08:01N 53°44' W 000°16'0 0.6
2019-Mar-22 07:31N 53°44' W 000°16'713.1
2019-Mar-22 07:01N 53°39' W 000°10'815.8
2019-Mar-22 06:31N 53°35' E 000°02'714.6
2019-Mar-22 06:01N 53°33' E 000°13'713.0
2019-Mar-22 05:30N 53°30' E 000°23'913.3
2019-Mar-22 04:50N 53°26' E 000°37'1113.1
2019-Mar-22 04:00N 53°22' E 000°54'914.8
2019-Mar-22 03:24N 53°17' E 001°06'616.2
2019-Mar-22 03:00N 53°12' E 001°13'916.9
2019-Mar-22 02:30N 53°06' E 001°22'917.4
2019-Mar-22 02:00N 52°59' E 001°31'918.3
2019-Mar-22 01:29N 52°52' E 001°42'917.7
2019-Mar-22 01:00N 52°45' E 001°51'917.7
2019-Mar-22 00:30N 52°38' E 001°59'816.1
2019-Mar-22 00:00N 52°31' E 002°06'714.9
2019-Mar-21 23:30N 52°25' E 002°12'714.2
2019-Mar-21 23:01N 52°18' E 002°17'713.7
2019-Mar-21 22:31N 52°12' E 002°21'713.6
2019-Mar-21 21:59N 52°05' E 002°25'713.6
2019-Mar-21 21:29N 51°59' E 002°29'713.8
2019-Mar-21 21:01N 51°53' E 002°33'714.3
2019-Mar-21 20:31N 51°47' E 002°38'714.4
2019-Mar-21 20:01N 51°40' E 002°43'714.8
2019-Mar-21 19:30N 51°34' E 002°49'815.3
2019-Mar-21 19:01N 51°28' E 002°57'815.2
2019-Mar-21 18:30N 51°24' E 003°08'4 8.7
2019-Mar-21 18:01N 51°20' E 003°11'0 0.2
2019-Mar-21 17:29N 51°20' E 003°11'0 0.0
2019-Mar-21 16:59N 51°20' E 003°11'0 0.0
2019-Mar-21 16:28N 51°20' E 003°11'0 0.0
2019-Mar-21 15:58N 51°20' E 003°11'0 0.0
2019-Mar-21 15:28N 51°20' E 003°11'0 0.0
2019-Mar-21 14:58N 51°20' E 003°11'0 0.0
2019-Mar-21 14:28N 51°20' E 003°11'0 0.0
2019-Mar-21 14:00N 51°20' E 003°11'0 0.0
2019-Mar-21 13:30N 51°20' E 003°11'0 0.0
2019-Mar-21 13:00N 51°20' E 003°11'0 0.0
2019-Mar-21 12:30N 51°20' E 003°11'0 0.0
2019-Mar-21 11:59N 51°20' E 003°11'0 0.0
2019-Mar-21 11:29N 51°20' E 003°11'0 0.0
2019-Mar-21 10:59N 51°20' E 003°11'0 0.0
2019-Mar-21 10:29N 51°20' E 003°11'0 0.0
2019-Mar-21 09:59N 51°20' E 003°11'0 0.0
2019-Mar-21 09:28N 51°20' E 003°11'0 0.0
2019-Mar-21 08:58N 51°20' E 003°11'0 0.0
2019-Mar-21 08:28N 51°20' E 003°11'0 0.0
2019-Mar-21 07:58N 51°20' E 003°11'1 2.7
2019-Mar-21 07:30N 51°22' E 003°12'714.4
2019-Mar-21 07:00N 51°25' E 003°02'815.4
2019-Mar-21 06:30N 51°28' E 002°50'815.7
2019-Mar-21 06:00N 51°34' E 002°42'816.1
2019-Mar-21 05:30N 51°42' E 002°39'816.1
2019-Mar-21 05:00N 51°49' E 002°35'816.0
2019-Mar-21 04:30N 51°57' E 002°30'815.5
2019-Mar-21 04:00N 52°04' E 002°25'815.2
2019-Mar-21 03:30N 52°11' E 002°20'714.8
2019-Mar-21 03:00N 52°18' E 002°16'714.8
2019-Mar-21 02:30N 52°25' E 002°12'714.4
2019-Mar-21 02:00N 52°31' E 002°07'714.8
2019-Mar-21 01:31N 52°38' E 002°01'714.7
2019-Mar-21 01:00N 52°43' E 001°53'714.9
2019-Mar-21 00:30N 52°49' E 001°45'815.2
2019-Mar-21 00:00N 52°54' E 001°36'815.3
2019-Mar-20 23:30N 53°00' E 001°28'1616.2
2019-Mar-20 22:33N 53°13' E 001°12'116.5
2019-Mar-20 22:30N 53°13' E 001°11'1616.5
2019-Mar-20 21:33N 53°23' E 000°51'117.2
2019-Mar-20 21:30N 53°23' E 000°49'1816.7
2019-Mar-20 20:24N 53°30' E 000°20'615.4
2019-Mar-20 20:00N 53°33' E 000°11'1019.4
2019-Mar-20 19:30N 53°36' W 000°03'917.5
2019-Mar-20 19:00N 53°42' W 000°14'3 5.2
2019-Mar-20 18:30N 53°44' W 000°16'0 0.2
2019-Mar-20 18:00N 53°45' W 000°16'0 0.0
2019-Mar-20 17:30N 53°45' W 000°16'0 0.0
2019-Mar-20 17:00N 53°45' W 000°16'0 0.0
2019-Mar-20 16:29N 53°45' W 000°16'0 0.0
2019-Mar-20 15:59N 53°45' W 000°16'0 0.0
2019-Mar-20 15:29N 53°45' W 000°16'0 0.0
2019-Mar-20 14:59N 53°45' W 000°16'0 0.0
2019-Mar-20 14:29N 53°45' W 000°16'0 0.0
2019-Mar-20 13:58N 53°45' W 000°16'0 0.0
2019-Mar-20 13:28N 53°45' W 000°16'0 0.0
2019-Mar-20 12:58N 53°45' W 000°16'0 0.0
2019-Mar-20 12:28N 53°45' W 000°16'0 0.0
2019-Mar-20 12:01N 53°45' W 000°16'0 0.0
2019-Mar-20 11:30N 53°45' W 000°16'0 0.0
2019-Mar-20 11:00N 53°45' W 000°16'0 0.0
2019-Mar-20 10:30N 53°45' W 000°16'0 0.0
2019-Mar-20 10:00N 53°45' W 000°16'0 0.0
2019-Mar-20 09:29N 53°45' W 000°16'0 0.0
2019-Mar-20 08:59N 53°45' W 000°16'0 0.0
2019-Mar-20 08:30N 53°45' W 000°16'0 0.2
2019-Mar-20 08:00N 53°44' W 000°16'0 0.3
2019-Mar-20 07:30N 53°44' W 000°17'5 9.5
2019-Mar-20 07:00N 53°40' W 000°13'612.8
2019-Mar-20 06:30N 53°37' W 000°04'714.2
2019-Mar-20 06:00N 53°34' E 000°07'714.8
2019-Mar-20 05:30N 53°31' E 000°19'5915.1
2019-Mar-20 01:37N 52°55' E 001°36'218.4
2019-Mar-20 01:30N 52°54' E 001°39'918.6
2019-Mar-20 01:00N 52°47' E 001°49'918.9
2019-Mar-20 00:30N 52°39' E 001°58'918.4
2019-Mar-20 00:00N 52°31' E 002°06'917.5
2019-Mar-19 23:30N 52°24' E 002°14'816.9
2019-Mar-19 23:00N 52°16' E 002°19'816.3
2019-Mar-19 22:30N 52°09' E 002°24'815.7
2019-Mar-19 22:00N 52°01' E 002°29'815.2
2019-Mar-19 21:27N 51°54' E 002°35'2014.4
2019-Mar-19 20:04N 51°35' E 002°47'215.1
2019-Mar-19 19:57N 51°34' E 002°49'715.0
2019-Mar-19 19:29N 51°29' E 002°56'715.2
2019-Mar-19 19:00N 51°24' E 003°05'5 9.8
2019-Mar-19 18:27N 51°20' E 003°11'0 0.3
2019-Mar-19 17:57N 51°20' E 003°11'0 0.0
2019-Mar-19 17:24N 51°20' E 003°11'0 0.0
2019-Mar-19 16:59N 51°20' E 003°11'0 0.0
2019-Mar-19 16:29N 51°20' E 003°11'0 0.0
2019-Mar-19 15:56N 51°20' E 003°11'0 0.0
2019-Mar-19 15:26N 51°20' E 003°11'0 0.0
2019-Mar-19 14:59N 51°20' E 003°11'0 0.0
2019-Mar-19 14:28N 51°20' E 003°11'0 0.0
2019-Mar-19 13:58N 51°20' E 003°11'0 0.0
2019-Mar-19 13:28N 51°20' E 003°11'0 0.0
2019-Mar-19 12:58N 51°20' E 003°11'0 0.0
2019-Mar-19 12:28N 51°20' E 003°11'0 0.0
2019-Mar-19 12:00N 51°20' E 003°11'0 0.0
2019-Mar-19 11:30N 51°20' E 003°11'0 0.0
2019-Mar-19 11:00N 51°20' E 003°11'0 0.0
2019-Mar-19 10:30N 51°20' E 003°11'0 0.0
2019-Mar-19 09:59N 51°20' E 003°11'0 0.0
2019-Mar-19 09:29N 51°20' E 003°11'0 0.0
2019-Mar-19 08:59N 51°20' E 003°11'0 0.0
2019-Mar-19 08:29N 51°20' E 003°11'0 0.0
2019-Mar-19 07:59N 51°20' E 003°11'1 2.2
2019-Mar-19 07:30N 51°21' E 003°12'815.8
2019-Mar-19 07:01N 51°25' E 003°01'816.7
2019-Mar-19 06:30N 51°29' E 002°49'1017.5
2019-Mar-19 05:55N 51°37' E 002°40'718.2
2019-Mar-19 05:30N 51°45' E 002°37'918.0
2019-Mar-19 05:00N 51°53' E 002°34'917.6
2019-Mar-19 04:31N 52°02' E 002°29'917.3
2019-Mar-19 04:01N 52°10' E 002°23'917.0
2019-Mar-19 03:30N 52°17' E 002°18'816.8
2019-Mar-19 03:00N 52°25' E 002°12'816.4
2019-Mar-19 02:30N 52°32' E 002°05'816.0
2019-Mar-19 02:00N 52°39' E 001°58'815.2
2019-Mar-19 01:30N 52°45' E 001°51'815.8
2019-Mar-19 01:00N 52°51' E 001°42'815.1
2019-Mar-19 00:30N 52°56' E 001°33'715.0
2019-Mar-19 00:01N 53°02' E 001°25'1715.5
2019-Mar-18 22:56N 53°14' E 001°07'715.5
2019-Mar-18 22:30N 53°20' E 001°00'2615.8
2019-Mar-18 20:52N 53°30' E 000°20'514.3
2019-Mar-18 20:31N 53°33' E 000°13'917.8
2019-Mar-18 20:00N 53°36' W 000°01'714.9
2019-Mar-18 19:30N 53°39' W 000°12'611.4
2019-Mar-18 19:00N 53°44' W 000°16'0 0.3
2019-Mar-18 18:30N 53°45' W 000°16'0 0.2
2019-Mar-18 18:00N 53°45' W 000°16'0 0.0
2019-Mar-18 17:28N 53°45' W 000°16'0 0.0
2019-Mar-18 16:58N 53°45' W 000°16'0 0.0
2019-Mar-18 16:28N 53°45' W 000°16'0 0.0
2019-Mar-18 15:58N 53°45' W 000°16'0 0.0
2019-Mar-18 15:28N 53°45' W 000°16'0 0.0
2019-Mar-18 15:00N 53°45' W 000°16'0 0.0
2019-Mar-18 14:30N 53°45' W 000°16'0 0.0
2019-Mar-18 13:57N 53°45' W 000°16'0 0.0
2019-Mar-18 13:30N 53°45' W 000°16'0 0.0
2019-Mar-18 12:59N 53°45' W 000°16'0 0.0
2019-Mar-18 12:29N 53°45' W 000°16'0 0.0
2019-Mar-18 11:59N 53°45' W 000°16'0 0.0
2019-Mar-18 11:29N 53°45' W 000°16'0 0.0
2019-Mar-18 10:59N 53°45' W 000°16'0 0.0
2019-Mar-18 10:28N 53°45' W 000°16'0 0.0
2019-Mar-18 09:58N 53°45' W 000°16'0 0.0
2019-Mar-18 09:28N 53°45' W 000°16'0 0.0
2019-Mar-18 08:58N 53°45' W 000°16'0 0.0
2019-Mar-18 08:30N 53°45' W 000°16'0 0.3
2019-Mar-18 08:00N 53°44' W 000°16'0 0.3
2019-Mar-18 07:30N 53°44' W 000°16'510.3
2019-Mar-18 07:00N 53°40' W 000°13'510.9
2019-Mar-18 06:30N 53°37' W 000°05'612.5
2019-Mar-18 06:00N 53°34' E 000°05'713.2
2019-Mar-18 05:30N 53°33' E 000°15'815.2
2019-Mar-18 04:57N 53°27' E 000°26'2314.8
2019-Mar-18 03:25N 53°10' E 000°52'2514.0
2019-Mar-18 01:37N 52°57' E 001°27'314.8
2019-Mar-18 01:24N 52°55' E 001°32'615.6
2019-Mar-18 01:01N 52°51' E 001°40'816.1
2019-Mar-18 00:30N 52°46' E 001°50'816.8
2019-Mar-18 00:00N 52°39' E 001°58'816.5
2019-Mar-17 23:30N 52°32' E 002°05'816.4
2019-Mar-17 23:00N 52°24' E 002°10'815.7
2019-Mar-17 22:30N 52°17' E 002°16'815.3
2019-Mar-17 22:01N 52°11' E 002°22'815.1
2019-Mar-17 21:30N 52°04' E 002°27'3414.5
2019-Mar-17 19:09N 51°33' E 002°51'214.3
2019-Mar-17 19:00N 51°31' E 002°53'714.6
2019-Mar-17 18:30N 51°26' E 003°01'714.5
2019-Mar-17 18:00N 51°22' E 003°11'2 4.0
2019-Mar-17 17:30N 51°20' E 003°11'0 0.0
2019-Mar-17 17:00N 51°20' E 003°11'0 0.0
2019-Mar-17 16:27N 51°20' E 003°11'0 0.0
2019-Mar-17 15:57N 51°20' E 003°11'0 0.0
2019-Mar-17 15:30N 51°20' E 003°11'0 0.0
2019-Mar-17 14:59N 51°20' E 003°11'0 0.0
2019-Mar-17 14:29N 51°20' E 003°11'0 0.0
2019-Mar-17 13:56N 51°20' E 003°11'0 0.0
2019-Mar-17 13:29N 51°20' E 003°11'0 0.0
2019-Mar-17 12:58N 51°20' E 003°11'0 0.0
2019-Mar-17 12:25N 51°20' E 003°11'0 0.0
2019-Mar-17 11:58N 51°20' E 003°11'0 0.0
2019-Mar-17 11:28N 51°20' E 003°11'0 0.0
2019-Mar-17 10:58N 51°20' E 003°11'0 0.0
2019-Mar-17 10:30N 51°20' E 003°11'0 0.0
2019-Mar-17 10:00N 51°20' E 003°11'0 0.0
2019-Mar-17 09:30N 51°20' E 003°11'0 0.0
2019-Mar-17 09:00N 51°20' E 003°11'0 0.0
2019-Mar-17 08:30N 51°20' E 003°11'1 1.3
2019-Mar-17 08:00N 51°21' E 003°12'713.8
2019-Mar-17 07:30N 51°25' E 003°03'815.9
2019-Mar-17 07:00N 51°29' E 002°52'1216.1
2019-Mar-17 06:17N 51°38' E 002°40'416.3
2019-Mar-17 06:00N 51°42' E 002°38'1615.8
2019-Mar-17 05:01N 51°57' E 002°30'314.6
2019-Mar-17 04:50N 51°59' E 002°28'615.8
2019-Mar-17 04:28N 52°05' E 002°25'715.8
2019-Mar-17 04:01N 52°11' E 002°21'815.9
2019-Mar-17 03:31N 52°19' E 002°16'815.3
2019-Mar-17 03:01N 52°25' E 002°10'815.2
2019-Mar-17 02:31N 52°32' E 002°04'815.2
2019-Mar-17 02:01N 52°39' E 001°58'714.9
2019-Mar-17 01:31N 52°45' E 001°51'815.2
2019-Mar-17 01:01N 52°50' E 001°41'815.1
2019-Mar-17 00:31N 52°55' E 001°32'815.6
2019-Mar-16 23:58N 52°59' E 001°19'715.3
2019-Mar-16 23:31N 53°01' E 001°08'815.2
2019-Mar-16 22:58N 53°07' E 000°58'3315.0
2019-Mar-16 20:47N 53°30' E 000°19'415.1
2019-Mar-16 20:30N 53°32' E 000°14'816.0
2019-Mar-16 20:01N 53°35' E 000°01'714.5
2019-Mar-16 19:30N 53°38' W 000°10'613.0
2019-Mar-16 19:00N 53°44' W 000°16'1 1.8
2019-Mar-16 18:30N 53°44' W 000°16'0 0.2
2019-Mar-16 18:01N 53°45' W 000°16'0 0.0
2019-Mar-16 17:30N 53°45' W 000°16'0 0.0
2019-Mar-16 17:00N 53°45' W 000°16'0 0.0
2019-Mar-16 16:30N 53°45' W 000°16'0 0.0
2019-Mar-16 16:00N 53°45' W 000°16'0 0.0
2019-Mar-16 15:29N 53°45' W 000°16'0 0.0
2019-Mar-16 14:59N 53°45' W 000°16'0 0.0
2019-Mar-16 14:29N 53°45' W 000°16'0 0.0
2019-Mar-16 13:59N 53°45' W 000°16'0 0.0
2019-Mar-16 13:26N 53°45' W 000°16'0 0.0
2019-Mar-16 12:58N 53°45' W 000°16'0 0.0
2019-Mar-16 12:28N 53°45' W 000°16'0 0.0
2019-Mar-16 11:58N 53°45' W 000°16'0 0.0
2019-Mar-16 11:28N 53°45' W 000°16'0 0.0
2019-Mar-16 11:00N 53°45' W 000°16'0 0.0
2019-Mar-16 10:30N 53°45' W 000°16'0 0.0
2019-Mar-16 10:00N 53°45' W 000°16'0 0.0
2019-Mar-16 09:30N 53°45' W 000°16'0 0.2
2019-Mar-16 09:00N 53°44' W 000°16'0 0.3
2019-Mar-16 08:30N 53°44' W 000°17'2 3.4
2019-Mar-16 08:00N 53°43' W 000°15'3 5.4
2019-Mar-16 07:30N 53°41' W 000°13'510.9
2019-Mar-16 07:00N 53°37' W 000°06'612.8
2019-Mar-16 06:30N 53°35' E 000°04'612.8
2019-Mar-16 06:00N 53°33' E 000°14'2313.6
2019-Mar-16 04:19N 53°16' E 000°41'1013.7
2019-Mar-16 03:34N 53°09' E 000°53'114.9
2019-Mar-16 03:30N 53°09' E 000°54'2514.6
2019-Mar-16 01:50N 52°56' E 001°30'514.5
2019-Mar-16 01:31N 52°54' E 001°36'715.0
2019-Mar-16 01:01N 52°48' E 001°45'815.4
2019-Mar-16 00:31N 52°43' E 001°54'816.2
2019-Mar-16 00:00N 52°36' E 002°02'816.8
2019-Mar-15 23:31N 52°29' E 002°08'917.2
2019-Mar-15 23:00N 52°21' E 002°13'817.0
2019-Mar-15 22:30N 52°13' E 002°19'816.9
2019-Mar-15 22:00N 52°06' E 002°25'916.8
2019-Mar-15 21:30N 51°58' E 002°31'3216.3
2019-Mar-15 19:31N 51°29' E 002°55'015.8
2019-Mar-15 19:30N 51°29' E 002°55'714.3
2019-Mar-15 19:01N 51°25' E 003°04'611.6
2019-Mar-15 18:30N 51°21' E 003°12'1 2.4
2019-Mar-15 18:00N 51°20' E 003°11'0 0.0
2019-Mar-15 17:30N 51°20' E 003°11'0 0.0
2019-Mar-15 16:58N 51°20' E 003°11'0 0.1
2019-Mar-15 16:28N 51°20' E 003°11'0 0.1
2019-Mar-15 16:00N 51°20' E 003°11'0 0.0
2019-Mar-15 15:30N 51°20' E 003°11'0 0.0
2019-Mar-15 15:00N 51°20' E 003°11'0 0.0
2019-Mar-15 14:30N 51°20' E 003°11'0 0.0
2019-Mar-15 13:59N 51°20' E 003°11'0 0.0
2019-Mar-15 13:29N 51°20' E 003°11'0 0.0
2019-Mar-15 12:56N 51°20' E 003°11'0 0.0
2019-Mar-15 12:29N 51°20' E 003°11'0 0.0
2019-Mar-15 11:59N 51°20' E 003°11'0 0.0
2019-Mar-15 11:28N 51°20' E 003°11'0 0.0
2019-Mar-15 10:58N 51°20' E 003°11'0 0.0
2019-Mar-15 10:28N 51°20' E 003°11'0 0.0
2019-Mar-15 09:58N 51°20' E 003°11'0 0.0
2019-Mar-15 09:31N 51°20' E 003°11'0 0.0
2019-Mar-15 09:00N 51°20' E 003°11'0 0.0
2019-Mar-15 08:30N 51°20' E 003°11'0 0.0
2019-Mar-15 08:00N 51°20' E 003°11'2 3.7
2019-Mar-15 07:30N 51°22' E 003°11'714.5
2019-Mar-15 07:00N 51°25' E 003°00'914.2
2019-Mar-15 06:24N 51°31' E 002°50'2613.9
2019-Mar-15 04:32N 51°54' E 002°31'014.4
2019-Mar-15 04:30N 51°54' E 002°31'713.8
2019-Mar-15 04:00N 52°01' E 002°26'714.9
2019-Mar-15 03:30N 52°07' E 002°22'815.5
2019-Mar-15 03:01N 52°14' E 002°17'816.0
2019-Mar-15 02:31N 52°22' E 002°11'917.0
2019-Mar-15 02:01N 52°30' E 002°06'917.8
2019-Mar-15 01:30N 52°38' E 002°00'918.6
2019-Mar-15 01:00N 52°45' E 001°51'918.8
2019-Mar-15 00:31N 52°51' E 001°39'1818.5
2019-Mar-14 23:32N 53°00' E 001°13'118.1
2019-Mar-14 23:31N 53°00' E 001°12'4317.7
2019-Mar-14 21:04N 53°30' E 000°19'217.2
2019-Mar-14 20:57N 53°31' E 000°17'715.3
2019-Mar-14 20:30N 53°34' E 000°06'714.6
2019-Mar-14 20:00N 53°37' W 000°05'612.1
2019-Mar-14 19:30N 53°40' W 000°13'4 8.9
2019-Mar-14 19:01N 53°44' W 000°16'0 0.4
2019-Mar-14 18:30N 53°44' W 000°16'0 0.5
2019-Mar-14 17:58N 53°45' W 000°16'0 0.0
2019-Mar-14 17:28N 53°45' W 000°16'0 0.0
2019-Mar-14 16:58N 53°45' W 000°16'0 0.0
2019-Mar-14 16:30N 53°45' W 000°16'0 0.0
2019-Mar-14 16:00N 53°45' W 000°16'0 0.0
2019-Mar-14 15:30N 53°45' W 000°16'0 0.0
2019-Mar-14 15:00N 53°45' W 000°16'0 0.0
2019-Mar-14 14:29N 53°45' W 000°16'0 0.0
2019-Mar-14 13:59N 53°45' W 000°16'0 0.0
2019-Mar-14 13:26N 53°45' W 000°16'0 0.0
2019-Mar-14 12:59N 53°45' W 000°16'0 0.0
2019-Mar-14 12:29N 53°45' W 000°16'0 0.0
2019-Mar-14 11:58N 53°45' W 000°16'0 0.0
2019-Mar-14 11:28N 53°45' W 000°16'0 0.0
2019-Mar-14 10:58N 53°45' W 000°16'0 0.0
2019-Mar-14 10:28N 53°45' W 000°16'0 0.0
2019-Mar-14 10:01N 53°45' W 000°16'0 0.0
2019-Mar-14 09:30N 53°45' W 000°16'0 0.0
2019-Mar-14 09:00N 53°45' W 000°16'0 0.3
2019-Mar-14 08:30N 53°45' W 000°16'0 0.1
2019-Mar-14 08:00N 53°44' W 000°16'2 3.4
2019-Mar-14 07:30N 53°43' W 000°15'713.8
2019-Mar-14 07:01N 53°38' W 000°08'816.1
2019-Mar-14 06:30N 53°35' E 000°05'4 8.8
2019-Mar-14 06:00N 53°33' E 000°12'613.0
2019-Mar-14 05:30N 53°30' E 000°22'2514.7
2019-Mar-14 03:47N 53°12' E 000°50'516.2
2019-Mar-14 03:31N 53°08' E 000°55'816.3
2019-Mar-14 03:00N 53°03' E 001°05'1916.1
2019-Mar-14 01:51N 52°54' E 001°33'516.4
2019-Mar-14 01:31N 52°51' E 001°40'815.9
2019-Mar-14 01:00N 52°46' E 001°50'815.5
2019-Mar-14 00:31N 52°39' E 001°56'815.7
2019-Mar-14 00:01N 52°32' E 002°01'816.2
2019-Mar-13 23:30N 52°24' E 002°07'816.7
2019-Mar-13 23:01N 52°17' E 002°13'816.8
2019-Mar-13 22:31N 52°10' E 002°20'816.9
2019-Mar-13 22:00N 52°02' E 002°26'1217.1
2019-Mar-13 21:18N 51°51' E 002°34'2214.4
2019-Mar-13 19:47N 51°32' E 002°51'514.3
2019-Mar-13 19:26N 51°28' E 002°57'614.0
2019-Mar-13 19:01N 51°25' E 003°04'612.4
2019-Mar-13 18:30N 51°21' E 003°12'1 1.0
2019-Mar-13 18:00N 51°20' E 003°11'0 0.0
2019-Mar-13 17:29N 51°20' E 003°11'0 0.0
2019-Mar-13 16:59N 51°20' E 003°11'0 0.0
2019-Mar-13 16:29N 51°20' E 003°11'0 0.0
2019-Mar-13 15:59N 51°20' E 003°11'0 0.0
2019-Mar-13 15:28N 51°20' E 003°11'0 0.0
2019-Mar-13 14:55N 51°20' E 003°11'0 0.0
2019-Mar-13 14:28N 51°20' E 003°11'0 0.0
2019-Mar-13 13:58N 51°20' E 003°11'0 0.0
2019-Mar-13 13:28N 51°20' E 003°11'0 0.0
2019-Mar-13 13:00N 51°20' E 003°11'0 0.0
2019-Mar-13 12:30N 51°20' E 003°11'0 0.0
2019-Mar-13 12:00N 51°20' E 003°11'0 0.0
2019-Mar-13 11:30N 51°20' E 003°11'0 0.0
2019-Mar-13 10:57N 51°20' E 003°11'0 0.0
2019-Mar-13 10:29N 51°20' E 003°11'0 0.0
2019-Mar-13 09:59N 51°20' E 003°11'0 0.0
2019-Mar-13 09:29N 51°20' E 003°11'0 0.0
2019-Mar-13 08:59N 51°20' E 003°11'0 0.0
2019-Mar-13 08:28N 51°20' E 003°11'0 0.0
2019-Mar-13 08:01N 51°20' E 003°11'2 3.9
2019-Mar-13 07:30N 51°22' E 003°11'714.6
2019-Mar-13 07:00N 51°25' E 002°60'815.0
2019-Mar-13 06:29N 51°30' E 002°50'3313.6
2019-Mar-13 04:04N 51°60' E 002°29'113.8
2019-Mar-13 04:00N 52°01' E 002°28'714.2
2019-Mar-13 03:31N 52°07' E 002°24'714.7
2019-Mar-13 03:01N 52°14' E 002°19'714.9
2019-Mar-13 02:31N 52°21' E 002°14'1616.1
2019-Mar-13 01:31N 52°35' E 002°03'918.1
2019-Mar-13 01:01N 52°43' E 001°54'918.8
2019-Mar-13 00:31N 52°49' E 001°42'1019.1
2019-Mar-13 00:00N 52°54' E 001°30'1119.0
2019-Mar-12 23:27N 52°59' E 001°14'819.0
2019-Mar-12 23:01N 53°04' E 001°02'1119.0
2019-Mar-12 22:26N 53°11' E 000°49'2618.4
2019-Mar-12 21:00N 53°30' E 000°19'816.7
2019-Mar-12 20:30N 53°34' E 000°06'815.7
2019-Mar-12 20:01N 53°37' W 000°06'713.3
2019-Mar-12 19:30N 53°42' W 000°14'3 5.9
2019-Mar-12 19:00N 53°44' W 000°16'0 0.2
2019-Mar-12 18:30N 53°45' W 000°16'0 0.0
2019-Mar-12 18:00N 53°45' W 000°16'0 0.0
2019-Mar-12 17:29N 53°45' W 000°16'0 0.0
2019-Mar-12 16:59N 53°45' W 000°16'0 0.0
2019-Mar-12 16:29N 53°45' W 000°16'0 0.0
2019-Mar-12 15:59N 53°45' W 000°16'0 0.0
2019-Mar-12 15:28N 53°45' W 000°16'0 0.0
2019-Mar-12 14:58N 53°45' W 000°16'0 0.0
2019-Mar-12 14:28N 53°45' W 000°16'0 0.0
2019-Mar-12 13:58N 53°45' W 000°16'0 0.0
2019-Mar-12 13:28N 53°45' W 000°16'0 0.0
2019-Mar-12 13:00N 53°45' W 000°16'0 0.0
2019-Mar-12 12:30N 53°45' W 000°16'  
Track history (hours):
 
Tides and Currents Weather Stations Pressure Air Temp Water Temp Dewpoint Dewpoint Depression Visibility Wind Speed Wind Dir Waves Ship Positions

Pride Of Bruges

Operator: P&O Ferries

Last reported at 2019-Mar-22 12:28 UTC. Time now 2019-Mar-22 12:52 UTC.
Position N 53°45' W 000°16'.

Length 180 m; draft 5.9 m.

Type: Ship (hazmat cat B). MMSI: 244387000.

Date/timePositionNaut miles runAvg speedWind from/ knotsBaromVisibWave heightAir tempDewpointWater temp
2019-Mar-22 12:28N 53°45' W 000°16'0 0.0
2019-Mar-22 11:58N 53°45' W 000°16'0 0.0
2019-Mar-22 11:28N 53°45' W 000°16'0 0.0
2019-Mar-22 11:00N 53°45' W 000°16'0 0.0
2019-Mar-22 10:30N 53°45' W 000°16'0 0.0
2019-Mar-22 10:00N 53°45' W 000°16'0 0.0
2019-Mar-22 09:30N 53°45' W 000°16'0 0.0
2019-Mar-22 09:00N 53°45' W 000°16'0 0.0
2019-Mar-22 08:29N 53°45' W 000°16'0 0.2
2019-Mar-22 08:01N 53°44' W 000°16'0 0.6
2019-Mar-22 07:31N 53°44' W 000°16'713.1
2019-Mar-22 07:01N 53°39' W 000°10'815.8
2019-Mar-22 06:31N 53°35' E 000°02'714.6
2019-Mar-22 06:01N 53°33' E 000°13'713.0
2019-Mar-22 05:30N 53°30' E 000°23'913.3
2019-Mar-22 04:50N 53°26' E 000°37'1113.1
2019-Mar-22 04:00N 53°22' E 000°54'914.8
2019-Mar-22 03:24N 53°17' E 001°06'616.2
2019-Mar-22 03:00N 53°12' E 001°13'916.9
2019-Mar-22 02:30N 53°06' E 001°22'917.4
2019-Mar-22 02:00N 52°59' E 001°31'918.3
2019-Mar-22 01:29N 52°52' E 001°42'917.7
2019-Mar-22 01:00N 52°45' E 001°51'917.7
2019-Mar-22 00:30N 52°38' E 001°59'816.1
2019-Mar-22 00:00N 52°31' E 002°06'714.9
2019-Mar-21 23:30N 52°25' E 002°12'714.2
2019-Mar-21 23:01N 52°18' E 002°17'713.7
2019-Mar-21 22:31N 52°12' E 002°21'713.6
2019-Mar-21 21:59N 52°05' E 002°25'713.6
2019-Mar-21 21:29N 51°59' E 002°29'713.8
2019-Mar-21 21:01N 51°53' E 002°33'714.3
2019-Mar-21 20:31N 51°47' E 002°38'714.4
2019-Mar-21 20:01N 51°40' E 002°43'714.8
2019-Mar-21 19:30N 51°34' E 002°49'815.3
2019-Mar-21 19:01N 51°28' E 002°57'815.2
2019-Mar-21 18:30N 51°24' E 003°08'4 8.7
2019-Mar-21 18:01N 51°20' E 003°11'0 0.2
2019-Mar-21 17:29N 51°20' E 003°11'0 0.0
2019-Mar-21 16:59N 51°20' E 003°11'0 0.0
2019-Mar-21 16:28N 51°20' E 003°11'0 0.0
2019-Mar-21 15:58N 51°20' E 003°11'0 0.0
2019-Mar-21 15:28N 51°20' E 003°11'0 0.0
2019-Mar-21 14:58N 51°20' E 003°11'0 0.0
2019-Mar-21 14:28N 51°20' E 003°11'0 0.0
2019-Mar-21 14:00N 51°20' E 003°11'0 0.0
2019-Mar-21 13:30N 51°20' E 003°11'0 0.0
2019-Mar-21 13:00N 51°20' E 003°11'0 0.0
2019-Mar-21 12:30N 51°20' E 003°11'0 0.0
2019-Mar-21 11:59N 51°20' E 003°11'0 0.0
2019-Mar-21 11:29N 51°20' E 003°11'0 0.0
2019-Mar-21 10:59N 51°20' E 003°11'0 0.0
2019-Mar-21 10:29N 51°20' E 003°11'0 0.0
2019-Mar-21 09:59N 51°20' E 003°11'0 0.0
2019-Mar-21 09:28N 51°20' E 003°11'0 0.0
2019-Mar-21 08:58N 51°20' E 003°11'0 0.0
2019-Mar-21 08:28N 51°20' E 003°11'0 0.0
2019-Mar-21 07:58N 51°20' E 003°11'1 2.7
2019-Mar-21 07:30N 51°22' E 003°12'714.4
2019-Mar-21 07:00N 51°25' E 003°02'815.4
2019-Mar-21 06:30N 51°28' E 002°50'815.7
2019-Mar-21 06:00N 51°34' E 002°42'816.1
2019-Mar-21 05:30N 51°42' E 002°39'816.1
2019-Mar-21 05:00N 51°49' E 002°35'816.0
2019-Mar-21 04:30N 51°57' E 002°30'815.5
2019-Mar-21 04:00N 52°04' E 002°25'815.2
2019-Mar-21 03:30N 52°11' E 002°20'714.8
2019-Mar-21 03:00N 52°18' E 002°16'714.8
2019-Mar-21 02:30N 52°25' E 002°12'714.4
2019-Mar-21 02:00N 52°31' E 002°07'714.8
2019-Mar-21 01:31N 52°38' E 002°01'714.7
2019-Mar-21 01:00N 52°43' E 001°53'714.9
2019-Mar-21 00:30N 52°49' E 001°45'815.2
2019-Mar-21 00:00N 52°54' E 001°36'815.3
2019-Mar-20 23:30N 53°00' E 001°28'1616.2
2019-Mar-20 22:33N 53°13' E 001°12'116.5
2019-Mar-20 22:30N 53°13' E 001°11'1616.5
2019-Mar-20 21:33N 53°23' E 000°51'117.2
2019-Mar-20 21:30N 53°23' E 000°49'1816.7
2019-Mar-20 20:24N 53°30' E 000°20'615.4
2019-Mar-20 20:00N 53°33' E 000°11'1019.4
2019-Mar-20 19:30N 53°36' W 000°03'917.5
2019-Mar-20 19:00N 53°42' W 000°14'3 5.2
2019-Mar-20 18:30N 53°44' W 000°16'0 0.2
2019-Mar-20 18:00N 53°45' W 000°16'0 0.0
2019-Mar-20 17:30N 53°45' W 000°16'0 0.0
2019-Mar-20 17:00N 53°45' W 000°16'0 0.0
2019-Mar-20 16:29N 53°45' W 000°16'0 0.0
2019-Mar-20 15:59N 53°45' W 000°16'0 0.0
2019-Mar-20 15:29N 53°45' W 000°16'0 0.0
2019-Mar-20 14:59N 53°45' W 000°16'0 0.0
2019-Mar-20 14:29N 53°45' W 000°16'0 0.0
2019-Mar-20 13:58N 53°45' W 000°16'0 0.0
2019-Mar-20 13:28N 53°45' W 000°16'0 0.0
2019-Mar-20 12:58N 53°45' W 000°16'0 0.0
2019-Mar-20 12:28N 53°45' W 000°16'0 0.0
2019-Mar-20 12:01N 53°45' W 000°16'0 0.0
2019-Mar-20 11:30N 53°45' W 000°16'0 0.0
2019-Mar-20 11:00N 53°45' W 000°16'0 0.0
2019-Mar-20 10:30N 53°45' W 000°16'0 0.0
2019-Mar-20 10:00N 53°45' W 000°16'0 0.0
2019-Mar-20 09:29N 53°45' W 000°16'0 0.0
2019-Mar-20 08:59N 53°45' W 000°16'0 0.0
2019-Mar-20 08:30N 53°45' W 000°16'0 0.2
2019-Mar-20 08:00N 53°44' W 000°16'0 0.3
2019-Mar-20 07:30N 53°44' W 000°17'5 9.5
2019-Mar-20 07:00N 53°40' W 000°13'612.8
2019-Mar-20 06:30N 53°37' W 000°04'714.2
2019-Mar-20 06:00N 53°34' E 000°07'714.8
2019-Mar-20 05:30N 53°31' E 000°19'5915.1
2019-Mar-20 01:37N 52°55' E 001°36'218.4
2019-Mar-20 01:30N 52°54' E 001°39'918.6
2019-Mar-20 01:00N 52°47' E 001°49'918.9
2019-Mar-20 00:30N 52°39' E 001°58'918.4
2019-Mar-20 00:00N 52°31' E 002°06'917.5
2019-Mar-19 23:30N 52°24' E 002°14'816.9
2019-Mar-19 23:00N 52°16' E 002°19'816.3
2019-Mar-19 22:30N 52°09' E 002°24'815.7
2019-Mar-19 22:00N 52°01' E 002°29'815.2
2019-Mar-19 21:27N 51°54' E 002°35'2014.4
2019-Mar-19 20:04N 51°35' E 002°47'215.1
2019-Mar-19 19:57N 51°34' E 002°49'715.0
2019-Mar-19 19:29N 51°29' E 002°56'715.2
2019-Mar-19 19:00N 51°24' E 003°05'5 9.8
2019-Mar-19 18:27N 51°20' E 003°11'0 0.3
2019-Mar-19 17:57N 51°20' E 003°11'0 0.0
2019-Mar-19 17:24N 51°20' E 003°11'0 0.0
2019-Mar-19 16:59N 51°20' E 003°11'0 0.0
2019-Mar-19 16:29N 51°20' E 003°11'0 0.0
2019-Mar-19 15:56N 51°20' E 003°11'0 0.0
2019-Mar-19 15:26N 51°20' E 003°11'0 0.0
2019-Mar-19 14:59N 51°20' E 003°11'0 0.0
2019-Mar-19 14:28N 51°20' E 003°11'0 0.0
2019-Mar-19 13:58N 51°20' E 003°11'0 0.0
2019-Mar-19 13:28N 51°20' E 003°11'0 0.0
2019-Mar-19 12:58N 51°20' E 003°11'0 0.0
2019-Mar-19 12:28N 51°20' E 003°11'0 0.0
2019-Mar-19 12:00N 51°20' E 003°11'0 0.0
2019-Mar-19 11:30N 51°20' E 003°11'0 0.0
2019-Mar-19 11:00N 51°20' E 003°11'0 0.0
2019-Mar-19 10:30N 51°20' E 003°11'0 0.0
2019-Mar-19 09:59N 51°20' E 003°11'0 0.0
2019-Mar-19 09:29N 51°20' E 003°11'0 0.0
2019-Mar-19 08:59N 51°20' E 003°11'0 0.0
2019-Mar-19 08:29N 51°20' E 003°11'0 0.0
2019-Mar-19 07:59N 51°20' E 003°11'1 2.2
2019-Mar-19 07:30N 51°21' E 003°12'815.8
2019-Mar-19 07:01N 51°25' E 003°01'816.7
2019-Mar-19 06:30N 51°29' E 002°49'1017.5
2019-Mar-19 05:55N 51°37' E 002°40'718.2
2019-Mar-19 05:30N 51°45' E 002°37'918.0
2019-Mar-19 05:00N 51°53' E 002°34'917.6
2019-Mar-19 04:31N 52°02' E 002°29'917.3
2019-Mar-19 04:01N 52°10' E 002°23'917.0
2019-Mar-19 03:30N 52°17' E 002°18'816.8
2019-Mar-19 03:00N 52°25' E 002°12'816.4
2019-Mar-19 02:30N 52°32' E 002°05'816.0
2019-Mar-19 02:00N 52°39' E 001°58'815.2
2019-Mar-19 01:30N 52°45' E 001°51'815.8
2019-Mar-19 01:00N 52°51' E 001°42'815.1
2019-Mar-19 00:30N 52°56' E 001°33'715.0
2019-Mar-19 00:01N 53°02' E 001°25'1715.5
2019-Mar-18 22:56N 53°14' E 001°07'715.5
2019-Mar-18 22:30N 53°20' E 001°00'2615.8
2019-Mar-18 20:52N 53°30' E 000°20'514.3
2019-Mar-18 20:31N 53°33' E 000°13'917.8
2019-Mar-18 20:00N 53°36' W 000°01'714.9
2019-Mar-18 19:30N 53°39' W 000°12'611.4
2019-Mar-18 19:00N 53°44' W 000°16'0 0.3
2019-Mar-18 18:30N 53°45' W 000°16'0 0.2
2019-Mar-18 18:00N 53°45' W 000°16'0 0.0
2019-Mar-18 17:28N 53°45' W 000°16'0 0.0
2019-Mar-18 16:58N 53°45' W 000°16'0 0.0
2019-Mar-18 16:28N 53°45' W 000°16'0 0.0
2019-Mar-18 15:58N 53°45' W 000°16'0 0.0
2019-Mar-18 15:28N 53°45' W 000°16'0 0.0
2019-Mar-18 15:00N 53°45' W 000°16'0 0.0
2019-Mar-18 14:30N 53°45' W 000°16'0 0.0
2019-Mar-18 13:57N 53°45' W 000°16'0 0.0
2019-Mar-18 13:30N 53°45' W 000°16'0 0.0
2019-Mar-18 12:59N 53°45' W 000°16'0 0.0
2019-Mar-18 12:29N 53°45' W 000°16'0 0.0
2019-Mar-18 11:59N 53°45' W 000°16'0 0.0
2019-Mar-18 11:29N 53°45' W 000°16'0 0.0
2019-Mar-18 10:59N 53°45' W 000°16'0 0.0
2019-Mar-18 10:28N 53°45' W 000°16'0 0.0
2019-Mar-18 09:58N 53°45' W 000°16'0 0.0
2019-Mar-18 09:28N 53°45' W 000°16'0 0.0
2019-Mar-18 08:58N 53°45' W 000°16'0 0.0
2019-Mar-18 08:30N 53°45' W 000°16'0 0.3
2019-Mar-18 08:00N 53°44' W 000°16'0 0.3
2019-Mar-18 07:30N 53°44' W 000°16'510.3
2019-Mar-18 07:00N 53°40' W 000°13'510.9
2019-Mar-18 06:30N 53°37' W 000°05'612.5
2019-Mar-18 06:00N 53°34' E 000°05'713.2
2019-Mar-18 05:30N 53°33' E 000°15'815.2
2019-Mar-18 04:57N 53°27' E 000°26'2314.8
2019-Mar-18 03:25N 53°10' E 000°52'2514.0
2019-Mar-18 01:37N 52°57' E 001°27'314.8
2019-Mar-18 01:24N 52°55' E 001°32'615.6
2019-Mar-18 01:01N 52°51' E 001°40'816.1
2019-Mar-18 00:30N 52°46' E 001°50'816.8
2019-Mar-18 00:00N 52°39' E 001°58'816.5
2019-Mar-17 23:30N 52°32' E 002°05'816.4
2019-Mar-17 23:00N 52°24' E 002°10'815.7
2019-Mar-17 22:30N 52°17' E 002°16'815.3
2019-Mar-17 22:01N 52°11' E 002°22'815.1
2019-Mar-17 21:30N 52°04' E 002°27'3414.5
2019-Mar-17 19:09N 51°33' E 002°51'214.3
2019-Mar-17 19:00N 51°31' E 002°53'714.6
2019-Mar-17 18:30N 51°26' E 003°01'714.5
2019-Mar-17 18:00N 51°22' E 003°11'2 4.0
2019-Mar-17 17:30N 51°20' E 003°11'0 0.0
2019-Mar-17 17:00N 51°20' E 003°11'0 0.0
2019-Mar-17 16:27N 51°20' E 003°11'0 0.0
2019-Mar-17 15:57N 51°20' E 003°11'0 0.0
2019-Mar-17 15:30N 51°20' E 003°11'0 0.0
2019-Mar-17 14:59N 51°20' E 003°11'0 0.0
2019-Mar-17 14:29N 51°20' E 003°11'0 0.0
2019-Mar-17 13:56N 51°20' E 003°11'0 0.0
2019-Mar-17 13:29N 51°20' E 003°11'0 0.0
2019-Mar-17 12:58N 51°20' E 003°11'0 0.0
2019-Mar-17 12:25N 51°20' E 003°11'0 0.0
2019-Mar-17 11:58N 51°20' E 003°11'0 0.0
2019-Mar-17 11:28N 51°20' E 003°11'0 0.0
2019-Mar-17 10:58N 51°20' E 003°11'0 0.0
2019-Mar-17 10:30N 51°20' E 003°11'0 0.0
2019-Mar-17 10:00N 51°20' E 003°11'0 0.0
2019-Mar-17 09:30N 51°20' E 003°11'0 0.0
2019-Mar-17 09:00N 51°20' E 003°11'0 0.0
2019-Mar-17 08:30N 51°20' E 003°11'1 1.3
2019-Mar-17 08:00N 51°21' E 003°12'713.8
2019-Mar-17 07:30N 51°25' E 003°03'815.9
2019-Mar-17 07:00N 51°29' E 002°52'1216.1
2019-Mar-17 06:17N 51°38' E 002°40'416.3
2019-Mar-17 06:00N 51°42' E 002°38'1615.8
2019-Mar-17 05:01N 51°57' E 002°30'314.6
2019-Mar-17 04:50N 51°59' E 002°28'615.8
2019-Mar-17 04:28N 52°05' E 002°25'715.8
2019-Mar-17 04:01N 52°11' E 002°21'815.9
2019-Mar-17 03:31N 52°19' E 002°16'815.3
2019-Mar-17 03:01N 52°25' E 002°10'815.2
2019-Mar-17 02:31N 52°32' E 002°04'815.2
2019-Mar-17 02:01N 52°39' E 001°58'714.9
2019-Mar-17 01:31N 52°45' E 001°51'815.2
2019-Mar-17 01:01N 52°50' E 001°41'815.1
2019-Mar-17 00:31N 52°55' E 001°32'815.6
2019-Mar-16 23:58N 52°59' E 001°19'715.3
2019-Mar-16 23:31N 53°01' E 001°08'815.2
2019-Mar-16 22:58N 53°07' E 000°58'3315.0
2019-Mar-16 20:47N 53°30' E 000°19'415.1
2019-Mar-16 20:30N 53°32' E 000°14'816.0
2019-Mar-16 20:01N 53°35' E 000°01'714.5
2019-Mar-16 19:30N 53°38' W 000°10'613.0
2019-Mar-16 19:00N 53°44' W 000°16'1 1.8
2019-Mar-16 18:30N 53°44' W 000°16'0 0.2
2019-Mar-16 18:01N 53°45' W 000°16'0 0.0
2019-Mar-16 17:30N 53°45' W 000°16'0 0.0
2019-Mar-16 17:00N 53°45' W 000°16'0 0.0
2019-Mar-16 16:30N 53°45' W 000°16'0 0.0
2019-Mar-16 16:00N 53°45' W 000°16'0 0.0
2019-Mar-16 15:29N 53°45' W 000°16'0 0.0
2019-Mar-16 14:59N 53°45' W 000°16'0 0.0
2019-Mar-16 14:29N 53°45' W 000°16'0 0.0
2019-Mar-16 13:59N 53°45' W 000°16'0 0.0
2019-Mar-16 13:26N 53°45' W 000°16'0 0.0
2019-Mar-16 12:58N 53°45' W 000°16'0 0.0
2019-Mar-16 12:28N 53°45' W 000°16'0 0.0
2019-Mar-16 11:58N 53°45' W 000°16'0 0.0
2019-Mar-16 11:28N 53°45' W 000°16'0 0.0
2019-Mar-16 11:00N 53°45' W 000°16'0 0.0
2019-Mar-16 10:30N 53°45' W 000°16'0 0.0
2019-Mar-16 10:00N 53°45' W 000°16'0 0.0
2019-Mar-16 09:30N 53°45' W 000°16'0 0.2
2019-Mar-16 09:00N 53°44' W 000°16'0 0.3
2019-Mar-16 08:30N 53°44' W 000°17'2 3.4
2019-Mar-16 08:00N 53°43' W 000°15'3 5.4
2019-Mar-16 07:30N 53°41' W 000°13'510.9
2019-Mar-16 07:00N 53°37' W 000°06'612.8
2019-Mar-16 06:30N 53°35' E 000°04'612.8
2019-Mar-16 06:00N 53°33' E 000°14'2313.6
2019-Mar-16 04:19N 53°16' E 000°41'1013.7
2019-Mar-16 03:34N 53°09' E 000°53'114.9
2019-Mar-16 03:30N 53°09' E 000°54'2514.6
2019-Mar-16 01:50N 52°56' E 001°30'514.5
2019-Mar-16 01:31N 52°54' E 001°36'715.0
2019-Mar-16 01:01N 52°48' E 001°45'815.4
2019-Mar-16 00:31N 52°43' E 001°54'816.2
2019-Mar-16 00:00N 52°36' E 002°02'816.8
2019-Mar-15 23:31N 52°29' E 002°08'917.2
2019-Mar-15 23:00N 52°21' E 002°13'817.0
2019-Mar-15 22:30N 52°13' E 002°19'816.9
2019-Mar-15 22:00N 52°06' E 002°25'916.8
2019-Mar-15 21:30N 51°58' E 002°31'3216.3
2019-Mar-15 19:31N 51°29' E 002°55'015.8
2019-Mar-15 19:30N 51°29' E 002°55'714.3
2019-Mar-15 19:01N 51°25' E 003°04'611.6
2019-Mar-15 18:30N 51°21' E 003°12'1 2.4
2019-Mar-15 18:00N 51°20' E 003°11'0 0.0
2019-Mar-15 17:30N 51°20' E 003°11'0 0.0
2019-Mar-15 16:58N 51°20' E 003°11'0 0.1
2019-Mar-15 16:28N 51°20' E 003°11'0 0.1
2019-Mar-15 16:00N 51°20' E 003°11'0 0.0
2019-Mar-15 15:30N 51°20' E 003°11'0 0.0
2019-Mar-15 15:00N 51°20' E 003°11'0 0.0
2019-Mar-15 14:30N 51°20' E 003°11'0 0.0
2019-Mar-15 13:59N 51°20' E 003°11'0 0.0
2019-Mar-15 13:29N 51°20' E 003°11'0 0.0
2019-Mar-15 12:56N 51°20' E 003°11'0 0.0
2019-Mar-15 12:29N 51°20' E 003°11'0 0.0
2019-Mar-15 11:59N 51°20' E 003°11'0 0.0
2019-Mar-15 11:28N 51°20' E 003°11'0 0.0
2019-Mar-15 10:58N 51°20' E 003°11'0 0.0
2019-Mar-15 10:28N 51°20' E 003°11'0 0.0
2019-Mar-15 09:58N 51°20' E 003°11'0 0.0
2019-Mar-15 09:31N 51°20' E 003°11'0 0.0
2019-Mar-15 09:00N 51°20' E 003°11'0 0.0
2019-Mar-15 08:30N 51°20' E 003°11'0 0.0
2019-Mar-15 08:00N 51°20' E 003°11'2 3.7
2019-Mar-15 07:30N 51°22' E 003°11'714.5
2019-Mar-15 07:00N 51°25' E 003°00'914.2
2019-Mar-15 06:24N 51°31' E 002°50'2613.9
2019-Mar-15 04:32N 51°54' E 002°31'014.4
2019-Mar-15 04:30N 51°54' E 002°31'713.8
2019-Mar-15 04:00N 52°01' E 002°26'714.9
2019-Mar-15 03:30N 52°07' E 002°22'815.5
2019-Mar-15 03:01N 52°14' E 002°17'816.0
2019-Mar-15 02:31N 52°22' E 002°11'917.0
2019-Mar-15 02:01N 52°30' E 002°06'917.8
2019-Mar-15 01:30N 52°38' E 002°00'918.6
2019-Mar-15 01:00N 52°45' E 001°51'918.8
2019-Mar-15 00:31N 52°51' E 001°39'1818.5
2019-Mar-14 23:32N 53°00' E 001°13'118.1
2019-Mar-14 23:31N 53°00' E 001°12'4317.7
2019-Mar-14 21:04N 53°30' E 000°19'217.2
2019-Mar-14 20:57N 53°31' E 000°17'715.3
2019-Mar-14 20:30N 53°34' E 000°06'714.6
2019-Mar-14 20:00N 53°37' W 000°05'612.1
2019-Mar-14 19:30N 53°40' W 000°13'4 8.9
2019-Mar-14 19:01N 53°44' W 000°16'0 0.4
2019-Mar-14 18:30N 53°44' W 000°16'0 0.5
2019-Mar-14 17:58N 53°45' W 000°16'0 0.0
2019-Mar-14 17:28N 53°45' W 000°16'0 0.0
2019-Mar-14 16:58N 53°45' W 000°16'0 0.0
2019-Mar-14 16:30N 53°45' W 000°16'0 0.0
2019-Mar-14 16:00N 53°45' W 000°16'0 0.0
2019-Mar-14 15:30N 53°45' W 000°16'0 0.0
2019-Mar-14 15:00N 53°45' W 000°16'0 0.0
2019-Mar-14 14:29N 53°45' W 000°16'0 0.0
2019-Mar-14 13:59N 53°45' W 000°16'0 0.0
2019-Mar-14 13:26N 53°45' W 000°16'0 0.0
2019-Mar-14 12:59N 53°45' W 000°16'0 0.0
2019-Mar-14 12:29N 53°45' W 000°16'0 0.0
2019-Mar-14 11:58N 53°45' W 000°16'0 0.0
2019-Mar-14 11:28N 53°45' W 000°16'0 0.0
2019-Mar-14 10:58N 53°45' W 000°16'0 0.0
2019-Mar-14 10:28N 53°45' W 000°16'0 0.0
2019-Mar-14 10:01N 53°45' W 000°16'0 0.0
2019-Mar-14 09:30N 53°45' W 000°16'0 0.0
2019-Mar-14 09:00N 53°45' W 000°16'0 0.3
2019-Mar-14 08:30N 53°45' W 000°16'0 0.1
2019-Mar-14 08:00N 53°44' W 000°16'2 3.4
2019-Mar-14 07:30N 53°43' W 000°15'713.8
2019-Mar-14 07:01N 53°38' W 000°08'816.1
2019-Mar-14 06:30N 53°35' E 000°05'4 8.8
2019-Mar-14 06:00N 53°33' E 000°12'613.0
2019-Mar-14 05:30N 53°30' E 000°22'2514.7
2019-Mar-14 03:47N 53°12' E 000°50'516.2
2019-Mar-14 03:31N 53°08' E 000°55'816.3
2019-Mar-14 03:00N 53°03' E 001°05'1916.1
2019-Mar-14 01:51N 52°54' E 001°33'516.4
2019-Mar-14 01:31N 52°51' E 001°40'815.9
2019-Mar-14 01:00N 52°46' E 001°50'815.5
2019-Mar-14 00:31N 52°39' E 001°56'815.7
2019-Mar-14 00:01N 52°32' E 002°01'816.2
2019-Mar-13 23:30N 52°24' E 002°07'816.7
2019-Mar-13 23:01N 52°17' E 002°13'816.8
2019-Mar-13 22:31N 52°10' E 002°20'816.9
2019-Mar-13 22:00N 52°02' E 002°26'1217.1
2019-Mar-13 21:18N 51°51' E 002°34'2214.4
2019-Mar-13 19:47N 51°32' E 002°51'514.3
2019-Mar-13 19:26N 51°28' E 002°57'614.0
2019-Mar-13 19:01N 51°25' E 003°04'612.4
2019-Mar-13 18:30N 51°21' E 003°12'1 1.0
2019-Mar-13 18:00N 51°20' E 003°11'0 0.0
2019-Mar-13 17:29N 51°20' E 003°11'0 0.0
2019-Mar-13 16:59N 51°20' E 003°11'0 0.0
2019-Mar-13 16:29N 51°20' E 003°11'0 0.0
2019-Mar-13 15:59N 51°20' E 003°11'0 0.0
2019-Mar-13 15:28N 51°20' E 003°11'0 0.0
2019-Mar-13 14:55N 51°20' E 003°11'0 0.0
2019-Mar-13 14:28N 51°20' E 003°11'0 0.0
2019-Mar-13 13:58N 51°20' E 003°11'0 0.0
2019-Mar-13 13:28N 51°20' E 003°11'0 0.0
2019-Mar-13 13:00N 51°20' E 003°11'0 0.0
2019-Mar-13 12:30N 51°20' E 003°11'0 0.0
2019-Mar-13 12:00N 51°20' E 003°11'0 0.0
2019-Mar-13 11:30N 51°20' E 003°11'0 0.0
2019-Mar-13 10:57N 51°20' E 003°11'0 0.0
2019-Mar-13 10:29N 51°20' E 003°11'0 0.0
2019-Mar-13 09:59N 51°20' E 003°11'0 0.0
2019-Mar-13 09:29N 51°20' E 003°11'0 0.0
2019-Mar-13 08:59N 51°20' E 003°11'0 0.0
2019-Mar-13 08:28N 51°20' E 003°11'0 0.0
2019-Mar-13 08:01N 51°20' E 003°11'2 3.9
2019-Mar-13 07:30N 51°22' E 003°11'714.6
2019-Mar-13 07:00N 51°25' E 002°60'815.0
2019-Mar-13 06:29N 51°30' E 002°50'3313.6
2019-Mar-13 04:04N 51°60' E 002°29'113.8
2019-Mar-13 04:00N 52°01' E 002°28'714.2
2019-Mar-13 03:31N 52°07' E 002°24'714.7
2019-Mar-13 03:01N 52°14' E 002°19'714.9
2019-Mar-13 02:31N 52°21' E 002°14'1616.1
2019-Mar-13 01:31N 52°35' E 002°03'918.1
2019-Mar-13 01:01N 52°43' E 001°54'918.8
2019-Mar-13 00:31N 52°49' E 001°42'1019.1
2019-Mar-13 00:00N 52°54' E 001°30'1119.0
2019-Mar-12 23:27N 52°59' E 001°14'819.0
2019-Mar-12 23:01N 53°04' E 001°02'1119.0
2019-Mar-12 22:26N 53°11' E 000°49'2618.4
2019-Mar-12 21:00N 53°30' E 000°19'816.7
2019-Mar-12 20:30N 53°34' E 000°06'815.7
2019-Mar-12 20:01N 53°37' W 000°06'713.3
2019-Mar-12 19:30N 53°42' W 000°14'3 5.9
2019-Mar-12 19:00N 53°44' W 000°16'0 0.2
2019-Mar-12 18:30N 53°45' W 000°16'0 0.0
2019-Mar-12 18:00N 53°45' W 000°16'0 0.0
2019-Mar-12 17:29N 53°45' W 000°16'0 0.0
2019-Mar-12 16:59N 53°45' W 000°16'0 0.0
2019-Mar-12 16:29N 53°45' W 000°16'0 0.0
2019-Mar-12 15:59N 53°45' W 000°16'0 0.0
2019-Mar-12 15:28N 53°45' W 000°16'0 0.0
2019-Mar-12 14:58N 53°45' W 000°16'0 0.0
2019-Mar-12 14:28N 53°45' W 000°16'0 0.0
2019-Mar-12 13:58N 53°45' W 000°16'0 0.0
2019-Mar-12 13:28N 53°45' W 000°16'0 0.0
2019-Mar-12 13:00N 53°45' W 000°16'0 0.0
2019-Mar-12 12:30N 53°45' W 000°16'  

Dump ship's entire track history